Decoded Metar for KRHP (ANDREWS in NC, USA) (IATA:RHP) | Meteo·Mobile Aviation Weather
aviador You're here:

KRHP Decoded Metar

ANDREWS in NC, USA
Report Time2018-09-25 15:05:00
UTC Time2018-09-25 15:12:32
Flight Rules mvfr MVFR
WindCalm
Visibility9999 m
Phenomena:N/A
Clouds:Broken 028 Hf
Overcast 033 Hf
Ceiling2,800 ft
Temp22°C (ISA +10)
Dew Point22°C (100% RH)
QNH1024 hPa
Density Alt2,894 ft
Elevation1,699 ft
Report Wrong Elevation
Raw Report
METAR KRHP 251505Z AUTO 00000KT 10SM BKN028 OVC033 22/22 A3024 RMK AO2 T02170216=

Extra information for KRHP:More info

Metar Taf Metar & Taf Last 4 Metars F.Rules Stats Wind Profile Meteogram Temp Stats Airport Information Weather charts Add Link Nearby VenuesMetar ALERT Operation Metar Decoded Social comments

AIRNAV info for KRHP